Dades meteomassalio
Diari Summary for Abril 27, 2017 Units:  Metric    English   Both
« Previous Day
Next Day »
Diari Semanal Mensual Anual Personalitzat
  Maxima: Minima: Mijana:
Temperatura: 15.3 °C 3.8 °C 8.3 °C
Rosada: 5.0 °C -3.2 °C 1.4 °C
Humitat: 90 % 30 % 66 %
Velocitat del vent: 35.2 km/h 0.0 km/h 16.7 km/h
Racha vent: 35.2 km/h - -
Vent:- - WNW
Pressio: 1018.8 hPa 1013.8 hPa -
Pluja: 1.5 mm    
Historical Graphs
 
 
Tabular Data for Abril 27, 2017
Time Temperature Dew Point Pressure Wind Wind Speed Wind Gust Humidity Rainfall Rate (Hourly) solar Conditions
00:03 9.3 °C 0.2 °C 1014.1 hPa WNW 22.2 km/h 22.2 km/h 53 % 0.0 mm 0.0 W/m2 RA
00:08 9.3 °C 0.2 °C 1014.1 hPa WNW 29.6 km/h 29.6 km/h 53 % 0.0 mm 0.0 W/m2 CLR
00:13 9.0 °C 1.2 °C 1014.4 hPa WNW 31.5 km/h 31.5 km/h 58 % 0.0 mm 0.0 W/m2 CLR
00:18 8.2 °C 1.4 °C 1014.1 hPa NW 32.2 km/h 32.2 km/h 62 % 0.0 mm 0.0 W/m2 CLR
00:23 7.5 °C 1.6 °C 1014.4 hPa WNW 31.5 km/h 31.5 km/h 66 % 0.0 mm 0.0 W/m2 RA
00:28 7.2 °C 1.8 °C 1014.4 hPa WNW 19.3 km/h 19.3 km/h 69 % 0.0 mm 0.0 W/m2
00:33 7.0 °C 2.5 °C 1014.4 hPa NW 27.8 km/h 27.8 km/h 73 % 0.0 mm 0.0 W/m2 CLR
00:38 6.9 °C 2.2 °C 1014.1 hPa WNW 24.1 km/h 24.1 km/h 72 % 0.0 mm 0.0 W/m2 CLR
00:43 7.1 °C 2.3 °C 1014.1 hPa WSW 20.4 km/h 20.4 km/h 72 % 0.0 mm 0.0 W/m2 CLR
00:48 7.2 °C 2.3 °C 1014.4 hPa WNW 18.5 km/h 18.5 km/h 71 % 0.0 mm 0.0 W/m2 CLR
00:53 7.2 °C 2.5 °C 1014.4 hPa WNW 18.5 km/h 18.5 km/h 72 % 0.0 mm 0.0 W/m2 CLR
00:58 7.2 °C 2.3 °C 1014.4 hPa WNW 20.4 km/h 20.4 km/h 71 % 0.0 mm 0.0 W/m2 CLR
01:03 7.2 °C 2.3 °C 1014.4 hPa West 24.1 km/h 24.1 km/h 71 % 0.3 mm 0.0 W/m2 CLR
01:08 7.2 °C 2.3 °C 1014.4 hPa WNW 24.1 km/h 24.1 km/h 71 % 0.3 mm 0.0 W/m2 CLR
01:13 7.1 °C 2.4 °C 1014.8 hPa West 13.0 km/h 13.0 km/h 72 % 0.3 mm 0.0 W/m2 CLR
01:18 6.9 °C 2.4 °C 1014.8 hPa WNW 18.5 km/h 18.5 km/h 73 % 0.3 mm 0.0 W/m2 CLR
01:23 6.8 °C 2.4 °C 1014.8 hPa WSW 12.9 km/h 12.9 km/h 74 % 0.3 mm 0.0 W/m2 RA
01:28 6.7 °C 2.6 °C 1014.8 hPa WNW 24.1 km/h 24.1 km/h 75 % 0.3 mm 0.0 W/m2
01:33 6.6 °C 2.5 °C 1014.8 hPa WNW 12.9 km/h 12.9 km/h 75 % 0.3 mm 0.0 W/m2 CLR
01:38 6.6 °C 2.5 °C 1014.8 hPa West 11.3 km/h 11.3 km/h 75 % 0.3 mm 0.0 W/m2 CLR
01:43 6.6 °C 2.6 °C 1014.8 hPa Calm     76 % 0.3 mm 0.0 W/m2 CLR
01:48 6.6 °C 2.8 °C 1014.8 hPa WSW 5.6 km/h 5.6 km/h 77 % 0.3 mm 0.0 W/m2 CLR
01:53 6.6 °C 2.6 °C 1014.8 hPa Calm   0.5 km/h 76 % 0.3 mm 0.0 W/m2 CLR
01:58 6.6 °C 2.6 °C 1014.8 hPa Calm     76 % 0.3 mm 0.0 W/m2 CLR
02:03 6.6 °C 2.7 °C 1014.8 hPa Calm     76 % 0.3 mm 0.0 W/m2 CLR
02:08 6.7 °C 2.6 °C 1015.1 hPa West 13.0 km/h 13.0 km/h 75 % 0.3 mm 0.0 W/m2 CLR
02:13 6.8 °C 2.5 °C 1015.1 hPa NW 18.5 km/h 18.5 km/h 74 % 0.3 mm 0.0 W/m2 CLR
02:18 6.8 °C 2.3 °C 1014.8 hPa NW 16.7 km/h 16.7 km/h 73 % 0.3 mm 0.0 W/m2 CLR
02:23 6.7 °C 2.6 °C 1014.8 hPa NW 13.0 km/h 13.0 km/h 75 % 0.0 mm 0.0 W/m2 CLR
02:28 6.6 °C 2.3 °C 1014.8 hPa Calm     74 % 0.0 mm 0.0 W/m2 CLR
02:33 6.6 °C 2.5 °C 1014.8 hPa NW 13.0 km/h 13.0 km/h 75 % 0.0 mm 0.0 W/m2 CLR
02:38 6.7 °C 2.3 °C 1014.8 hPa Calm   1.3 km/h 74 % 0.0 mm 0.0 W/m2 CLR
02:43 6.7 °C 2.3 °C 1014.8 hPa NW 9.3 km/h 9.3 km/h 74 % 0.0 mm 0.0 W/m2 CLR
02:48 6.7 °C 2.3 °C 1014.8 hPa WNW 16.7 km/h 16.7 km/h 74 % 0.0 mm 0.0 W/m2 CLR
02:54 6.7 °C 2.6 °C 1014.8 hPa NNW 20.4 km/h 20.4 km/h 75 % 0.0 mm 0.0 W/m2 CLR
02:59 6.6 °C 2.6 °C 1014.8 hPa WNW 18.5 km/h 18.5 km/h 76 % 0.0 mm 0.0 W/m2 CLR
03:04 6.4 °C 2.7 °C 1015.1 hPa NW 18.5 km/h 18.5 km/h 77 % 0.0 mm 0.0 W/m2 CLR
03:09 6.2 °C 2.7 °C 1014.8 hPa NW 22.2 km/h 22.2 km/h 78 % 0.0 mm 0.0 W/m2 CLR
03:14 6.2 °C 2.8 °C 1015.1 hPa WNW 11.1 km/h 11.1 km/h 79 % 0.0 mm 0.0 W/m2 CLR
03:19 6.1 °C 2.7 °C 1014.8 hPa NW 11.3 km/h 11.3 km/h 79 % 0.0 mm 0.0 W/m2 CLR
03:24 6.1 °C 2.9 °C 1014.8 hPa NNW 14.8 km/h 14.8 km/h 80 % 0.0 mm 0.0 W/m2 CLR
03:29 6.0 °C 2.8 °C 1014.8 hPa NNW 22.5 km/h 22.5 km/h 80 % 0.0 mm 0.0 W/m2 CLR
03:34 5.8 °C 2.8 °C 1014.8 hPa NNW 16.7 km/h 16.7 km/h 81 % 0.0 mm 0.0 W/m2 CLR
03:39 5.7 °C 2.9 °C 1014.8 hPa NW 19.3 km/h 19.3 km/h 82 % 0.0 mm 0.0 W/m2 CLR
03:44 5.6 °C 2.9 °C 1014.8 hPa NW 20.4 km/h 20.4 km/h 83 % 0.0 mm 0.0 W/m2 CLR
03:49 5.5 °C 3.0 °C 1014.8 hPa NW 16.7 km/h 16.7 km/h 84 % 0.0 mm 0.0 W/m2 CLR
03:54 5.5 °C 3.0 °C 1014.8 hPa WNW 13.0 km/h 13.0 km/h 84 % 0.0 mm 0.0 W/m2 CLR
03:59 5.4 °C 3.1 °C 1014.8 hPa West 16.7 km/h 16.7 km/h 85 % 0.0 mm 0.0 W/m2 CLR
04:04 5.4 °C 2.9 °C 1014.8 hPa WNW 16.7 km/h 16.7 km/h 84 % 0.0 mm 0.0 W/m2 CLR
04:09 5.3 °C 2.8 °C 1014.8 hPa NW 25.9 km/h 25.9 km/h 84 % 0.0 mm 0.0 W/m2 CLR
04:14 5.2 °C 2.9 °C 1014.8 hPa NW 18.5 km/h 18.5 km/h 85 % 0.0 mm 0.0 W/m2 CLR
04:19 5.1 °C 2.7 °C 1014.8 hPa NNW 20.4 km/h 20.4 km/h 85 % 0.0 mm 0.0 W/m2 CLR
04:24 5.0 °C 2.7 °C 1014.8 hPa NW 16.7 km/h 16.7 km/h 85 % 0.0 mm 0.0 W/m2 CLR
04:29 4.9 °C 2.7 °C 1014.8 hPa NW 16.7 km/h 16.7 km/h 86 % 0.0 mm 0.0 W/m2 CLR
04:34 4.8 °C 2.7 °C 1014.8 hPa WNW 9.7 km/h 9.7 km/h 86 % 0.0 mm 0.0 W/m2 CLR
04:39 4.8 °C 2.8 °C 1014.8 hPa WNW 14.8 km/h 14.8 km/h 87 % 0.0 mm 0.0 W/m2 CLR
04:44 4.8 °C 2.8 °C 1014.8 hPa NNW 18.5 km/h 18.5 km/h 87 % 0.0 mm 0.0 W/m2 CLR
04:49 4.7 °C 2.7 °C 1014.8 hPa WNW 13.0 km/h 13.0 km/h 87 % 0.0 mm 0.0 W/m2 CLR
04:54 4.6 °C 2.6 °C 1014.8 hPa WNW 18.5 km/h 18.5 km/h 87 % 0.0 mm 0.0 W/m2 CLR
04:59 4.5 °C 2.5 °C 1014.8 hPa WNW 18.5 km/h 18.5 km/h 87 % 0.0 mm 0.0 W/m2 CLR
05:04 4.4 °C 2.6 °C 1014.4 hPa WNW 14.8 km/h 14.8 km/h 88 % 0.0 mm 0.0 W/m2 CLR
05:09 4.4 °C 2.6 °C 1014.4 hPa West 14.8 km/h 14.8 km/h 88 % 0.0 mm 0.0 W/m2 CLR
05:14 4.4 °C 2.6 °C 1014.8 hPa West 16.7 km/h 16.7 km/h 88 % 0.0 mm 0.0 W/m2 CLR
05:19 4.3 °C 2.5 °C 1014.4 hPa West 16.1 km/h 16.1 km/h 88 % 0.0 mm 0.0 W/m2 CLR
05:24 4.3 °C 2.4 °C 1014.4 hPa West 18.5 km/h 18.5 km/h 88 % 0.0 mm 0.0 W/m2 CLR
05:29 4.2 °C 2.2 °C 1014.8 hPa West 24.1 km/h 24.1 km/h 87 % 0.0 mm 0.0 W/m2 CLR
05:34 4.1 °C 2.2 °C 1014.8 hPa West 20.9 km/h 20.9 km/h 88 % 0.0 mm 0.0 W/m2 CLR
05:39 4.0 °C 2.1 °C 1014.4 hPa West 24.1 km/h 24.1 km/h 87 % 0.0 mm 0.0 W/m2 CLR
05:44 3.9 °C 2.0 °C 1014.4 hPa WSW 24.1 km/h 24.1 km/h 87 % 0.0 mm 0.0 W/m2 CLR
05:49 3.9 °C 1.9 °C 1014.4 hPa West 20.4 km/h 20.4 km/h 87 % 0.0 mm 0.0 W/m2 CLR
05:54 3.9 °C 1.9 °C 1014.1 hPa WSW 19.3 km/h 19.3 km/h 87 % 0.0 mm 0.0 W/m2 CLR
05:59 3.8 °C 1.9 °C 1014.1 hPa West 18.5 km/h 18.5 km/h 87 % 0.0 mm 0.0 W/m2 CLR
06:04 3.8 °C 2.0 °C 1014.1 hPa West 9.7 km/h 9.7 km/h 88 % 0.0 mm 0.0 W/m2 CLR
06:09 3.9 °C 2.1 °C 1014.1 hPa WSW 11.3 km/h 11.3 km/h 88 % 0.0 mm 0.0 W/m2 CLR
06:14 3.9 °C 2.1 °C 1014.1 hPa SSW 11.1 km/h 11.1 km/h 88 % 0.0 mm 0.0 W/m2 CLR
06:19 3.9 °C 2.1 °C 1014.1 hPa WSW 13.0 km/h 13.0 km/h 88 % 0.0 mm 0.0 W/m2 CLR
06:24 3.9 °C 2.1 °C 1014.1 hPa WSW 14.8 km/h 14.8 km/h 88 % 0.0 mm 0.0 W/m2 CLR
06:29 3.9 °C 2.1 °C 1014.1 hPa WSW 14.8 km/h 14.8 km/h 88 % 0.0 mm 0.0 W/m2 CLR
06:34 4.0 °C 2.1 °C 1014.1 hPa WSW 14.8 km/h 14.8 km/h 87 % 0.0 mm 0.0 W/m2 CLR
06:39 4.0 °C 2.2 °C 1014.1 hPa WSW 14.8 km/h 14.8 km/h 88 % 0.0 mm 0.0 W/m2 CLR
06:44 4.0 °C 2.1 °C 1014.1 hPa West 14.8 km/h 14.8 km/h 87 % 0.0 mm 0.0 W/m2 CLR
06:49 3.9 °C 2.1 °C 1014.4 hPa WSW 16.7 km/h 16.7 km/h 88 % 0.3 mm 0.0 W/m2 RA
06:54 3.9 °C 2.1 °C 1014.1 hPa West 18.5 km/h 18.5 km/h 88 % 0.3 mm 0.0 W/m2 CLR
06:59 3.9 °C 2.1 °C 1014.1 hPa West 16.7 km/h 16.7 km/h 88 % 0.3 mm 0.0 W/m2 CLR
07:04 3.9 °C 2.1 °C 1014.1 hPa West 18.5 km/h 18.5 km/h 88 % 0.5 mm 0.0 W/m2 RA
07:09 3.9 °C 2.1 °C 1014.4 hPa West 19.3 km/h 19.3 km/h 88 % 0.5 mm 0.0 W/m2
07:14 3.9 °C 2.1 °C 1014.4 hPa WSW 20.4 km/h 20.4 km/h 88 % 0.5 mm 0.0 W/m2 CLR
07:19 3.8 °C 2.0 °C 1014.8 hPa WSW 18.5 km/h 18.5 km/h 88 % 0.5 mm 0.0 W/m2 OVC
07:24 3.8 °C 2.0 °C 1014.8 hPa WNW 20.4 km/h 20.4 km/h 88 % 0.5 mm 0.0 W/m2 OVC
07:29 3.8 °C 2.0 °C 1014.8 hPa West 18.5 km/h 18.5 km/h 88 % 0.5 mm 9.0 W/m2 RA
07:34 3.8 °C 2.0 °C 1014.8 hPa WNW 18.5 km/h 18.5 km/h 88 % 0.5 mm 9.0 W/m2 BKN
07:39 3.8 °C 2.2 °C 1014.8 hPa West 18.5 km/h 18.5 km/h 89 % 0.5 mm 7.0 W/m2 BKN
07:44 3.9 °C 2.2 °C 1015.1 hPa West 11.1 km/h 11.1 km/h 89 % 0.5 mm 5.0 W/m2 OVC
07:49 3.9 °C 2.2 °C 1015.1 hPa WSW 9.3 km/h 9.3 km/h 89 % 0.5 mm 5.0 W/m2 OVC
07:54 3.9 °C 2.3 °C 1015.1 hPa West 11.1 km/h 11.1 km/h 89 % 0.5 mm 9.0 W/m2 BKN
08:00 4.0 °C 2.3 °C 1015.1 hPa WSW 16.1 km/h 16.1 km/h 89 % 0.5 mm 7.0 W/m2 BKN
08:05 4.1 °C 2.4 °C 1015.1 hPa West 7.4 km/h 7.4 km/h 89 % 0.3 mm 5.0 W/m2 BKN
08:10 4.1 °C 2.4 °C 1015.1 hPa West 9.3 km/h 9.3 km/h 89 % 0.3 mm 11.0 W/m2 BKN
08:15 4.1 °C 2.4 °C 1015.1 hPa West 8.0 km/h 8.0 km/h 89 % 0.3 mm 11.0 W/m2 BKN
08:20 4.1 °C 2.4 °C 1015.1 hPa West 11.1 km/h 11.1 km/h 89 % 0.3 mm 14.0 W/m2 BKN
08:25 4.1 °C 2.4 °C 1015.5 hPa West 6.4 km/h 6.4 km/h 89 % 0.3 mm 18.0 W/m2 BKN
08:30 4.1 °C 2.4 °C 1015.5 hPa West 5.6 km/h 5.6 km/h 89 % 0.0 mm 23.0 W/m2 BKN
08:35 4.2 °C 2.5 °C 1015.5 hPa West 7.4 km/h 7.4 km/h 89 % 0.3 mm 25.0 W/m2 RA
08:40 4.1 °C 2.4 °C 1015.5 hPa WSW 13.0 km/h 13.0 km/h 89 % 0.3 mm 18.0 W/m2 BKN
08:45 4.1 °C 2.4 °C 1015.5 hPa SW 9.3 km/h 9.3 km/h 89 % 0.3 mm 25.0 W/m2 BKN
08:50 4.1 °C 2.4 °C 1015.5 hPa SW 7.4 km/h 7.4 km/h 89 % 0.3 mm 26.0 W/m2 BKN
08:55 4.1 °C 2.4 °C 1015.5 hPa WSW 7.4 km/h 8.7 km/h 89 % 0.3 mm 33.0 W/m2 BKN
09:00 4.1 °C 2.6 °C 1015.5 hPa SW 7.4 km/h 7.4 km/h 90 % 0.3 mm 42.0 W/m2 BKN
09:05 4.1 °C 2.6 °C 1015.5 hPa SSW 9.3 km/h 9.3 km/h 90 % 0.3 mm 42.0 W/m2 BKN
09:10 4.1 °C 2.6 °C 1015.5 hPa SSW 9.7 km/h 9.7 km/h 90 % 0.3 mm 46.0 W/m2 BKN
09:15 4.1 °C 2.6 °C 1015.5 hPa SW 11.1 km/h 11.1 km/h 90 % 0.3 mm 84.0 W/m2 SCT
09:20 4.1 °C 2.6 °C 1015.5 hPa SW 9.7 km/h 9.7 km/h 90 % 0.3 mm 88.0 W/m2 FEW
09:25 4.1 °C 2.6 °C 1015.5 hPa SW 11.1 km/h 11.1 km/h 90 % 0.3 mm 81.0 W/m2 FEW
09:30 4.2 °C 2.7 °C 1015.5 hPa WSW 14.8 km/h 14.8 km/h 90 % 0.3 mm 46.0 W/m2 FEW
09:35 4.2 °C 2.7 °C 1015.5 hPa West 14.8 km/h 14.8 km/h 90 % 0.0 mm 44.0 W/m2 SCT
09:40 4.2 °C 2.7 °C 1015.5 hPa WSW 14.8 km/h 14.8 km/h 90 % 0.0 mm 35.0 W/m2 BKN
09:45 4.3 °C 2.8 °C 1015.5 hPa WSW 9.3 km/h 9.3 km/h 90 % 0.0 mm 37.0 W/m2 BKN
09:50 4.3 °C 2.8 °C 1015.8 hPa West 11.1 km/h 11.1 km/h 90 % 0.0 mm 35.0 W/m2 BKN
09:55 4.4 °C 2.8 °C 1015.8 hPa West 14.8 km/h 14.8 km/h 89 % 0.0 mm 63.0 W/m2 BKN
10:00 4.6 °C 2.9 °C 1015.8 hPa WSW 18.5 km/h 18.5 km/h 89 % 0.0 mm 65.0 W/m2 SCT
10:05 4.6 °C 2.9 °C 1015.8 hPa WNW 17.7 km/h 17.7 km/h 89 % 0.5 mm 77.0 W/m2 RA
10:10 4.5 °C 2.8 °C 1016.1 hPa NW 16.7 km/h 16.7 km/h 89 % 0.5 mm 77.0 W/m2 FEW
10:11 4.5 °C 2.8 °C 1016.1 hPa WNW 17.7 km/h 17.7 km/h 89 % 0.5 mm 77.0 W/m2 FEW
10:16 4.5 °C 2.8 °C 1016.1 hPa WNW 16.7 km/h 16.7 km/h 89 % 0.5 mm 69.0 W/m2 FEW
10:21 4.4 °C 2.8 °C 1016.1 hPa West 18.5 km/h 18.5 km/h 89 % 0.5 mm 63.0 W/m2 FEW
10:26 4.5 °C 2.8 °C 1016.1 hPa West 16.7 km/h 16.7 km/h 89 % 0.5 mm 62.0 W/m2 SCT
10:31 4.4 °C 2.8 °C 1016.1 hPa WNW 16.7 km/h 16.7 km/h 89 % 0.5 mm 42.0 W/m2 SCT
10:36 4.4 °C 2.6 °C 1016.1 hPa WNW 20.4 km/h 20.4 km/h 88 % 0.5 mm 40.0 W/m2 SCT
10:41 4.5 °C 2.8 °C 1016.1 hPa WNW 14.8 km/h 14.8 km/h 89 % 0.5 mm 49.0 W/m2 BKN
10:46 4.6 °C 2.9 °C 1016.1 hPa WSW 14.8 km/h 14.8 km/h 89 % 0.5 mm 56.0 W/m2 SCT
10:51 4.6 °C 2.9 °C 1016.1 hPa West 17.7 km/h 17.7 km/h 89 % 0.5 mm 62.0 W/m2 SCT
10:56 4.7 °C 3.0 °C 1016.5 hPa West 18.5 km/h 18.5 km/h 89 % 0.5 mm 56.0 W/m2 SCT
11:01 4.7 °C 2.8 °C 1016.1 hPa WNW 14.8 km/h 14.8 km/h 88 % 0.5 mm 65.0 W/m2 SCT
11:06 4.8 °C 2.9 °C 1016.1 hPa West 16.7 km/h 16.7 km/h 88 % 0.0 mm 72.0 W/m2 SCT
11:11 4.8 °C 3.0 °C 1016.1 hPa West 20.4 km/h 20.4 km/h 88 % 0.0 mm 105.0 W/m2 FEW
11:16 5.0 °C 3.2 °C 1016.1 hPa West 14.8 km/h 14.8 km/h 88 % 0.0 mm 104.0 W/m2 CLR
11:21 5.0 °C 3.0 °C 1016.5 hPa West 11.1 km/h 11.1 km/h 87 % 0.0 mm 100.0 W/m2 CLR
11:26 5.0 °C 3.0 °C 1016.5 hPa WNW 14.8 km/h 14.8 km/h 87 % 0.0 mm 121.0 W/m2 CLR
11:31 5.1 °C 2.9 °C 1016.5 hPa West 18.5 km/h 18.5 km/h 86 % 0.0 mm 153.0 W/m2 CLR
11:36 5.1 °C 2.9 °C 1016.5 hPa West 18.5 km/h 18.5 km/h 86 % 0.0 mm 165.0 W/m2 CLR
11:41 5.1 °C 2.9 °C 1016.5 hPa WSW 14.8 km/h 14.8 km/h 86 % 0.0 mm 144.0 W/m2 CLR
11:46 5.2 °C 3.0 °C 1016.5 hPa West 14.5 km/h 14.5 km/h 86 % 0.0 mm 148.0 W/m2 CLR
11:51 5.3 °C 2.9 °C 1016.1 hPa SW 9.3 km/h 9.3 km/h 85 % 0.0 mm 213.0 W/m2 CLR
11:56 5.3 °C 3.0 °C 1016.5 hPa WSW 7.4 km/h 7.4 km/h 85 % 0.0 mm 169.0 W/m2 CLR
12:01 5.5 °C 3.2 °C 1016.5 hPa West 9.3 km/h 9.3 km/h 85 % 0.0 mm 155.0 W/m2 CLR
12:06 5.6 °C 3.2 °C 1016.5 hPa SW 11.1 km/h 11.1 km/h 85 % 0.0 mm 144.0 W/m2 CLR
12:11 5.6 °C 3.1 °C 1016.5 hPa WSW 13.0 km/h 13.0 km/h 84 % 0.0 mm 181.0 W/m2 CLR
12:16 5.8 °C 3.3 °C 1016.5 hPa SW 11.1 km/h 11.1 km/h 84 % 0.0 mm 178.0 W/m2 CLR
12:21 5.9 °C 3.2 °C 1016.5 hPa WSW 11.1 km/h 11.1 km/h 83 % 0.0 mm 192.0 W/m2 CLR
12:26 6.1 °C 3.2 °C 1016.1 hPa WSW 4.8 km/h 4.8 km/h 82 % 0.0 mm 306.0 W/m2 CLR
12:31 6.3 °C 3.5 °C 1016.5 hPa Calm     82 % 0.0 mm 309.0 W/m2 CLR
12:36 6.5 °C 3.5 °C 1016.5 hPa SW 5.6 km/h 5.6 km/h 81 % 0.0 mm 211.0 W/m2 CLR
12:41 6.6 °C 3.6 °C 1016.1 hPa SW 5.6 km/h 5.6 km/h 81 % 0.0 mm 297.0 W/m2 CLR
12:46 6.7 °C 3.5 °C 1016.1 hPa West 3.7 km/h 3.7 km/h 80 % 0.0 mm 283.0 W/m2 CLR
12:51 7.0 °C 3.9 °C 1016.1 hPa WSW 1.9 km/h 2.7 km/h 81 % 0.0 mm 304.0 W/m2 CLR
12:56 7.3 °C 3.7 °C 1016.1 hPa NW 5.6 km/h   78 % 0.0 mm 448.0 W/m2 CLR
13:01 7.7 °C 4.5 °C 1016.1 hPa West 6.4 km/h 6.4 km/h 80 % 0.0 mm 605.0 W/m2 CLR
13:06 7.9 °C 3.9 °C 1015.8 hPa WSW 5.6 km/h 5.6 km/h 76 % 0.0 mm 696.0 W/m2 CLR
13:11 8.2 °C 4.4 °C 1015.8 hPa WSW 8.0 km/h 8.0 km/h 77 % 0.0 mm 663.0 W/m2 CLR
13:16 8.7 °C 4.8 °C 1015.8 hPa Calm     77 % 0.0 mm 1213.0 W/m2 CLR
13:21 9.2 °C 5.0 °C 1015.8 hPa SW 18.5 km/h 18.5 km/h 75 % 0.0 mm 645.0 W/m2 CLR
13:26 9.2 °C 4.0 °C 1015.5 hPa WNW 25.9 km/h 25.9 km/h 70 % 0.0 mm 591.0 W/m2 CLR
13:31 9.3 °C 4.7 °C 1015.5 hPa Calm     73 % 0.0 mm 461.0 W/m2 CLR
13:36 9.7 °C 4.5 °C 1015.5 hPa WNW 20.4 km/h 20.4 km/h 70 % 0.0 mm 397.0 W/m2 CLR
13:41 10.0 °C 4.2 °C 1015.5 hPa NNW 18.5 km/h 18.5 km/h 67 % 0.0 mm 788.0 W/m2 CLR
13:46 10.1 °C 4.4 °C 1015.5 hPa West 18.5 km/h 18.5 km/h 68 % 0.0 mm 438.0 W/m2 CLR
13:51 10.0 °C 3.9 °C 1015.5 hPa NW 22.2 km/h 22.2 km/h 66 % 0.0 mm 422.0 W/m2 CLR
13:56 9.9 °C 4.1 °C 1015.5 hPa WNW 16.7 km/h 16.7 km/h 67 % 0.0 mm 369.0 W/m2 CLR
14:01 9.9 °C 3.4 °C 1015.5 hPa NW 11.3 km/h 11.3 km/h 64 % 0.0 mm 274.0 W/m2 CLR
14:06 10.0 °C 3.9 °C 1015.1 hPa WNW 31.5 km/h 31.5 km/h 66 % 0.0 mm 292.0 W/m2 CLR
14:12 10.0 °C 3.7 °C 1015.5 hPa WNW 18.5 km/h 18.5 km/h 65 % 0.0 mm 434.0 W/m2 CLR
14:17 10.3 °C 3.6 °C 1015.5 hPa NW 24.1 km/h 24.1 km/h 63 % 0.0 mm 759.0 W/m2 CLR
14:22 10.3 °C 3.1 °C 1015.1 hPa NW 11.1 km/h 11.1 km/h 61 % 0.0 mm 274.0 W/m2 CLR
14:27 10.4 °C 3.4 °C 1015.5 hPa NW 19.3 km/h 19.3 km/h 62 % 0.0 mm 385.0 W/m2 CLR
14:32 10.7 °C 3.7 °C 1015.1 hPa WNW 17.7 km/h 17.7 km/h 62 % 0.0 mm 1009.0 W/m2 CLR
14:37 11.0 °C 3.1 °C 1015.1 hPa West 13.0 km/h 13.0 km/h 58 % 0.0 mm 385.0 W/m2 CLR
14:42 10.9 °C 3.0 °C 1015.1 hPa West 22.2 km/h 22.2 km/h 58 % 0.0 mm 383.0 W/m2 CLR
14:47 11.1 °C 3.9 °C 1015.1 hPa NNE 6.4 km/h 6.8 km/h 61 % 0.0 mm 619.0 W/m2 CLR
14:52 11.1 °C 3.2 °C 1015.1 hPa WNW 13.0 km/h 13.0 km/h 58 % 0.0 mm 287.0 W/m2 CLR
14:57 11.2 °C 3.4 °C 1015.1 hPa NW 18.5 km/h 18.5 km/h 59 % 0.0 mm 279.0 W/m2 CLR
15:02 11.1 °C 3.4 °C 1015.1 hPa WNW 1.9 km/h   59 % 0.0 mm 294.0 W/m2 CLR
15:07 11.2 °C 3.5 °C 1015.1 hPa NNW 16.7 km/h 16.7 km/h 59 % 0.0 mm 378.0 W/m2 CLR
15:12 11.7 °C 3.2 °C 1015.1 hPa WNW 20.4 km/h 20.4 km/h 56 % 0.0 mm 840.0 W/m2 CLR
15:17 12.2 °C 3.4 °C 1014.8 hPa WNW 14.8 km/h 14.8 km/h 55 % 0.0 mm 965.0 W/m2 CLR
15:22 12.5 °C 2.9 °C 1014.8 hPa WSW 14.8 km/h 14.8 km/h 52 % 0.0 mm 947.0 W/m2 CLR
15:27 12.7 °C 3.9 °C 1014.8 hPa NNE 22.5 km/h 22.5 km/h 55 % 0.0 mm 918.0 W/m2 CLR
15:32 13.0 °C 3.6 °C 1014.8 hPa WNW 16.7 km/h 16.7 km/h 53 % 0.0 mm 884.0 W/m2 CLR
15:37 13.1 °C 3.2 °C 1014.8 hPa NW 20.4 km/h 20.4 km/h 51 % 0.0 mm 900.0 W/m2 CLR
15:42 13.4 °C 2.6 °C 1014.8 hPa NW 24.1 km/h 24.1 km/h 48 % 0.0 mm 888.0 W/m2 CLR
15:47 13.4 °C 2.6 °C 1014.8 hPa WNW 24.1 km/h 24.1 km/h 48 % 0.0 mm 932.0 W/m2 CLR
15:52 13.2 °C 1.5 °C 1014.4 hPa NNE 16.7 km/h 16.7 km/h 45 % 0.0 mm 640.0 W/m2 CLR
15:57 13.0 °C 2.5 °C 1014.4 hPa NW 16.7 km/h 16.7 km/h 49 % 0.0 mm 962.0 W/m2 CLR
16:02 13.3 °C 2.5 °C 1014.4 hPa NW 1.9 km/h   48 % 0.0 mm 914.0 W/m2 CLR
16:07 13.3 °C 2.2 °C 1014.4 hPa NNW 20.4 km/h 20.4 km/h 47 % 0.0 mm 206.0 W/m2 CLR
16:12 13.3 °C 2.6 °C 1014.4 hPa WNW 18.5 km/h 18.5 km/h 48 % 0.0 mm 780.0 W/m2 CLR
16:17 13.5 °C 1.4 °C 1014.4 hPa NW 3.7 km/h 3.7 km/h 44 % 0.0 mm 856.0 W/m2 CLR
16:22 13.9 °C 2.8 °C 1014.1 hPa NW 24.1 km/h 24.1 km/h 47 % 0.0 mm 789.0 W/m2 CLR
16:27 13.9 °C 1.8 °C 1014.1 hPa NW 11.1 km/h 11.1 km/h 44 % 0.0 mm 775.0 W/m2 CLR
16:32 13.9 °C 0.8 °C 1014.1 hPa WNW 7.4 km/h 7.4 km/h 41 % 0.0 mm 770.0 W/m2 CLR
16:37 13.8 °C 1.1 °C 1014.1 hPa NNW 20.4 km/h 20.4 km/h 42 % 0.0 mm 155.0 W/m2 CLR
16:42 13.6 °C 0.9 °C 1014.1 hPa WNW 24.1 km/h 24.1 km/h 42 % 0.0 mm 297.0 W/m2 CLR
16:47 13.7 °C 1.3 °C 1014.1 hPa NW 1.9 km/h 1.9 km/h 43 % 0.0 mm 763.0 W/m2 CLR
16:52 13.8 °C 1.4 °C 1014.1 hPa WNW 13.0 km/h 13.0 km/h 43 % 0.0 mm 199.0 W/m2 CLR
16:57 14.2 °C 1.8 °C 1014.1 hPa NW 13.0 km/h 13.0 km/h 43 % 0.0 mm 830.0 W/m2 CLR
17:02 14.1 °C 0.7 °C 1013.8 hPa Calm     40 % 0.0 mm 211.0 W/m2 CLR
17:07 14.2 °C 1.2 °C 1013.8 hPa WNW 18.5 km/h 18.5 km/h 41 % 0.0 mm 817.0 W/m2 CLR
17:12 14.3 °C 0.6 °C 1013.8 hPa NW 19.3 km/h 19.3 km/h 39 % 0.0 mm 204.0 W/m2 CLR
17:17 14.2 °C -0.7 °C 1013.8 hPa North 9.3 km/h   36 % 0.0 mm 202.0 W/m2 CLR
17:22 14.2 °C 0.1 °C 1013.8 hPa NNW 16.7 km/h 16.7 km/h 38 % 0.0 mm 155.0 W/m2 CLR
17:27 14.3 °C -0.9 °C 1013.8 hPa NW 24.1 km/h 24.1 km/h 35 % 0.0 mm 640.0 W/m2 CLR
17:32 14.4 °C -0.5 °C 1013.8 hPa WNW 18.5 km/h 18.5 km/h 36 % 0.0 mm 613.0 W/m2 CLR
17:37 14.8 °C -0.6 °C 1013.8 hPa North 20.4 km/h 20.4 km/h 35 % 0.0 mm 517.0 W/m2 CLR
17:42 14.7 °C -1.8 °C 1013.8 hPa NNE 12.9 km/h 12.9 km/h 32 % 0.0 mm 564.0 W/m2 CLR
17:47 14.8 °C 0.2 °C 1013.8 hPa WNW 18.5 km/h 18.5 km/h 37 % 0.0 mm 485.0 W/m2 CLR
17:52 14.6 °C -1.1 °C 1014.1 hPa North 20.4 km/h 20.4 km/h 34 % 0.0 mm 114.0 W/m2 CLR
17:57 14.5 °C -0.8 °C 1013.8 hPa North 14.5 km/h 14.5 km/h 35 % 0.0 mm 559.0 W/m2 CLR
18:02 14.8 °C -0.5 °C 1013.8 hPa NNW 1.6 km/h 1.6 km/h 35 % 0.0 mm 520.0 W/m2 CLR
18:07 15.2 °C -0.6 °C 1013.8 hPa WNW 3.7 km/h 3.7 km/h 34 % 0.0 mm 506.0 W/m2 CLR
18:12 15.3 °C -1.3 °C 1014.1 hPa WNW 17.7 km/h 17.7 km/h 32 % 0.0 mm 492.0 W/m2 CLR
18:17 15.1 °C -1.6 °C 1013.8 hPa NW 25.9 km/h 25.9 km/h 32 % 0.0 mm 457.0 W/m2 CLR
18:22 15.2 °C -0.6 °C 1014.1 hPa WNW 16.7 km/h 16.7 km/h 34 % 0.0 mm 434.0 W/m2 CLR
18:27 15.2 °C -1.4 °C 1014.1 hPa NW 22.2 km/h 22.2 km/h 32 % 0.0 mm 413.0 W/m2 CLR
18:32 15.2 °C -1.4 °C 1014.1 hPa West 14.5 km/h 14.5 km/h 32 % 0.0 mm 399.0 W/m2 CLR
18:37 15.1 °C -1.9 °C 1014.1 hPa WNW 27.8 km/h 27.8 km/h 31 % 0.0 mm 394.0 W/m2 CLR
18:42 15.0 °C -1.6 °C 1014.1 hPa NW 31.5 km/h 31.5 km/h 32 % 0.0 mm 364.0 W/m2 CLR
18:47 15.0 °C -1.6 °C 1014.1 hPa North 16.7 km/h 16.7 km/h 32 % 0.0 mm 341.0 W/m2 CLR
18:52 15.0 °C -2.0 °C 1014.1 hPa NW 25.9 km/h 25.9 km/h 31 % 0.0 mm 325.0 W/m2 CLR
18:57 14.9 °C -2.1 °C 1014.4 hPa NW 31.5 km/h 31.5 km/h 31 % 0.0 mm 309.0 W/m2 CLR
19:02 14.8 °C -2.2 °C 1014.4 hPa NNW 25.7 km/h 25.7 km/h 31 % 0.0 mm 290.0 W/m2 CLR
19:07 14.6 °C -2.8 °C 1014.4 hPa NW 25.9 km/h 25.9 km/h 30 % 0.0 mm 272.0 W/m2 CLR
19:12 14.7 °C -2.3 °C 1014.4 hPa WNW 22.2 km/h 22.2 km/h 31 % 0.0 mm 255.0 W/m2 CLR
19:13 14.6 °C -2.3 °C 1014.4 hPa WNW 22.2 km/h 22.2 km/h 31 % 0.0 mm 255.0 W/m2 CLR
19:18 14.6 °C -2.4 °C 1014.8 hPa WNW 31.5 km/h 31.5 km/h 31 % 0.0 mm 236.0 W/m2 CLR
19:23 14.4 °C -2.5 °C 1014.8 hPa NW 18.5 km/h 18.5 km/h 31 % 0.0 mm 216.0 W/m2 CLR
19:28 14.5 °C -2.4 °C 1014.8 hPa WNW 24.1 km/h 24.1 km/h 31 % 0.0 mm 199.0 W/m2 CLR
19:33 14.3 °C -2.6 °C 1014.8 hPa NNW 24.1 km/h 24.1 km/h 31 % 0.0 mm 179.0 W/m2 CLR
19:38 14.3 °C -2.7 °C 1014.8 hPa WNW 16.7 km/h 16.7 km/h 31 % 0.0 mm 158.0 W/m2 CLR
19:43 14.1 °C -2.8 °C 1014.8 hPa NW 29.6 km/h 29.6 km/h 31 % 0.0 mm 139.0 W/m2 CLR
19:48 13.9 °C -3.0 °C 1014.8 hPa NW 25.9 km/h 25.9 km/h 31 % 0.0 mm 121.0 W/m2 CLR
19:53 13.7 °C -3.1 °C 1015.1 hPa NW 29.6 km/h 29.6 km/h 31 % 0.0 mm 105.0 W/m2 CLR
19:58 13.6 °C -3.2 °C 1015.1 hPa NW 31.5 km/h 31.5 km/h 31 % 0.0 mm 91.0 W/m2 CLR
20:03 13.4 °C -2.9 °C 1015.1 hPa NW 24.1 km/h 24.1 km/h 32 % 0.0 mm 74.0 W/m2 FEW
20:08 13.3 °C -2.6 °C 1015.1 hPa NW 18.5 km/h 18.5 km/h 33 % 0.0 mm 56.0 W/m2 SCT
20:13 13.3 °C -2.3 °C 1015.5 hPa NW 18.5 km/h 18.5 km/h 34 % 0.0 mm 47.0 W/m2 SCT
20:18 13.1 °C -2.4 °C 1015.5 hPa NW 22.2 km/h 22.2 km/h 34 % 0.0 mm 39.0 W/m2 BKN
20:23 12.9 °C -2.2 °C 1015.5 hPa NNW 25.9 km/h 25.9 km/h 35 % 0.0 mm 26.0 W/m2 BKN
20:28 12.8 °C -1.9 °C 1015.5 hPa NW 18.5 km/h 18.5 km/h 36 % 0.0 mm 21.0 W/m2 BKN
20:33 12.6 °C -1.8 °C 1015.8 hPa NNW 18.5 km/h 18.5 km/h 37 % 0.0 mm 16.0 W/m2 BKN
20:38 12.3 °C -2.3 °C 1015.8 hPa NW 20.4 km/h 20.4 km/h 36 % 0.0 mm 14.0 W/m2 BKN
20:43 12.1 °C -2.6 °C 1015.8 hPa WNW 24.1 km/h 24.1 km/h 36 % 0.0 mm 11.0 W/m2 BKN
20:48 11.9 °C -1.9 °C 1015.8 hPa NW 18.5 km/h 18.5 km/h 38 % 0.0 mm 7.0 W/m2 BKN
20:53 11.7 °C -1.8 °C 1016.1 hPa WNW 17.7 km/h 17.7 km/h 39 % 0.0 mm 5.0 W/m2 OVC
20:58 11.7 °C -2.2 °C 1016.1 hPa NW 27.4 km/h 27.4 km/h 38 % 0.0 mm 0.0 W/m2 OVC
21:03 11.5 °C -2.0 °C 1016.1 hPa WNW 16.7 km/h 16.7 km/h 39 % 0.0 mm 0.0 W/m2 CLR
21:08 11.3 °C -1.8 °C 1016.5 hPa West 24.1 km/h 24.1 km/h 40 % 0.0 mm 0.0 W/m2 CLR
21:13 11.3 °C -2.2 °C 1016.5 hPa WNW 25.9 km/h 25.9 km/h 39 % 0.0 mm 0.0 W/m2 CLR
21:18 11.1 °C -2.0 °C 1016.5 hPa WNW 22.2 km/h 22.2 km/h 40 % 0.0 mm 0.0 W/m2 CLR
21:23 11.1 °C -2.4 °C 1016.5 hPa WNW 31.5 km/h 31.5 km/h 39 % 0.0 mm 0.0 W/m2 CLR
21:28 11.0 °C -2.4 °C 1016.8 hPa NW 20.4 km/h 20.4 km/h 39 % 0.0 mm 0.0 W/m2 CLR
21:33 10.9 °C -2.5 °C 1016.8 hPa WNW 27.8 km/h 27.8 km/h 39 % 0.0 mm 0.0 W/m2 CLR
21:38 10.9 °C -2.6 °C 1016.8 hPa NW 35.2 km/h 35.2 km/h 39 % 0.0 mm 0.0 W/m2 CLR
21:43 10.7 °C -2.7 °C 1016.8 hPa NNW 22.2 km/h 22.2 km/h 39 % 0.0 mm 0.0 W/m2 CLR
21:48 10.7 °C -2.4 °C 1017.2 hPa NW 25.9 km/h 25.9 km/h 40 % 0.0 mm 0.0 W/m2 CLR
21:53 10.5 °C -2.2 °C 1017.5 hPa NW 17.7 km/h 17.7 km/h 41 % 0.0 mm 0.0 W/m2 CLR
21:58 10.4 °C -2.7 °C 1017.5 hPa NNW 24.1 km/h 24.1 km/h 40 % 0.0 mm 0.0 W/m2 CLR
22:03 10.3 °C -2.4 °C 1017.5 hPa NNW 18.5 km/h 18.5 km/h 41 % 0.0 mm 0.0 W/m2 CLR
22:08 10.2 °C -2.5 °C 1017.5 hPa NNW 18.5 km/h 18.5 km/h 41 % 0.0 mm 0.0 W/m2 CLR
22:13 10.1 °C -2.6 °C 1017.8 hPa NW 25.9 km/h 25.9 km/h 41 % 0.0 mm 0.0 W/m2 CLR
22:18 10.1 °C -2.3 °C 1017.8 hPa NNW 24.1 km/h 24.1 km/h 42 % 0.0 mm 0.0 W/m2 CLR
22:23 9.9 °C -2.4 °C 1018.2 hPa NW 20.4 km/h 20.4 km/h 42 % 0.0 mm 0.0 W/m2 CLR
22:28 9.8 °C -2.2 °C 1018.2 hPa NW 14.8 km/h 14.8 km/h 43 % 0.0 mm 0.0 W/m2 CLR
22:29 9.8 °C -2.2 °C 1018.2 hPa WNW 16.7 km/h 16.7 km/h 43 % 0.0 mm 0.0 W/m2 CLR
22:34 9.6 °C -2.1 °C 1018.5 hPa NW 18.5 km/h 18.5 km/h 44 % 0.0 mm 0.0 W/m2 CLR
22:39 9.4 °C -1.9 °C 1018.5 hPa NNW 22.2 km/h 22.2 km/h 45 % 0.0 mm 0.0 W/m2 CLR
22:45 9.3 °C -1.7 °C 1018.5 hPa NNW 20.4 km/h 20.4 km/h 46 % 0.0 mm 0.0 W/m2 CLR
22:50 9.2 °C -1.5 °C 1018.5 hPa West 14.8 km/h 14.8 km/h 47 % 0.0 mm 0.0 W/m2 CLR
22:55 9.0 °C -1.7 °C 1018.5 hPa WNW 18.5 km/h 18.5 km/h 47 % 0.0 mm 0.0 W/m2 CLR
23:00 8.8 °C -1.6 °C 1018.5 hPa WNW 18.5 km/h 18.5 km/h 48 % 0.0 mm 0.0 W/m2 CLR
23:05 8.8 °C -1.3 °C 1018.5 hPa NW 31.5 km/h 31.5 km/h 49 % 0.0 mm 0.0 W/m2 CLR
23:10 8.8 °C -1.3 °C 1018.5 hPa NW 20.4 km/h 20.4 km/h 49 % 0.0 mm 0.0 W/m2 CLR
23:15 8.6 °C -1.3 °C 1018.5 hPa NW 16.7 km/h 16.7 km/h 50 % 0.0 mm 0.0 W/m2 CLR
23:20 8.4 °C -1.2 °C 1018.5 hPa WNW 18.5 km/h 18.5 km/h 51 % 0.0 mm 0.0 W/m2 CLR
23:25 8.3 °C -1.0 °C 1018.8 hPa WNW 18.5 km/h 18.5 km/h 52 % 0.0 mm 0.0 W/m2 CLR
23:30 8.2 °C -1.1 °C 1018.8 hPa WNW 19.3 km/h 19.3 km/h 52 % 0.0 mm 0.0 W/m2 CLR
23:35 8.2 °C -1.1 °C 1018.8 hPa WNW 20.4 km/h 20.4 km/h 52 % 0.0 mm 0.0 W/m2 CLR
23:40 8.1 °C -1.2 °C 1018.8 hPa WNW 18.5 km/h 18.5 km/h 52 % 0.0 mm 0.0 W/m2 CLR
23:45 8.0 °C -0.8 °C 1018.8 hPa NNW 24.1 km/h 24.1 km/h 54 % 0.0 mm 0.0 W/m2 CLR
23:50 7.8 °C -0.9 °C 1018.8 hPa NW 20.4 km/h 20.4 km/h 54 % 0.0 mm 0.0 W/m2 CLR
23:55 7.6 °C -0.6 °C 1018.8 hPa WNW 24.1 km/h 24.1 km/h 56 % 0.0 mm 0.0 W/m2 CLR
Lo Temps de Massalio
Compliments of Weather Underground - 1.25 mb